Ashton-under-Lyne, United Kingdom
Current Conditions -  °F | °C
As of 12:20 PM on Monday 24 Nov 2014 (Local Time) from EGCC Reporting Station
Scattered Clouds Scattered Clouds  
Wind Chill: 39°   Ceiling: Unl
Heat Index: 43°   Visibility: 6mi
Dew Point: 39°   Wind: 7mph
Humidity: 87%   Direction: 190°S
Pressure: 30.33"   Gusts: NA
Location:  53.49°N, 2.1°W
Report Text: EGCC 241220Z 19006KT 9999 SCT037 06/04 Q1027 NOSIG
Loading
Personal Weather Stations






























Interactive Weather Map New forecast layout! Learn more

10-Day Weather Forecast

Advertisements
Track Severe Weather on mobile